Time;durP1;ratioP1;P1;durP2;ratioP2;P2;SDS_P1;SDS_P2;PMS_P1;PMS_P2;Temp;Humidity;BMP_temperature;BMP_pressure;BME280_temperature;BME280_humidity;BME280_pressure;Samples;Min_cycle;Max_cycle;Signal;HPM_P1;HPM_P2
2022/10/02 00:00:27;;;;;;;124.53;117.82;;;;;;;19.60;74.34;100213.78;5017524;28;103857;-56
2022/10/02 00:02:59;;;;;;;132.25;125.32;;;;;;;19.60;74.38;100216.56;5004459;28;102321;-56
2022/10/02 00:05:33;;;;;;;128.35;121.70;;;;;;;19.60;74.47;100208.28;5009830;28;102228;-56
2022/10/02 00:08:04;;;;;;;136.23;129.15;;;;;;;19.60;74.38;100205.50;5009829;28;102385;-56
2022/10/02 00:10:37;;;;;;;132.07;125.32;;;;;;;19.60;74.67;100205.50;5016252;28;103812;-56
2022/10/02 00:13:06;;;;;;;128.50;121.80;;;;;;;19.59;74.70;100201.94;5016065;28;102323;-56
2022/10/02 00:15:36;;;;;;;138.70;131.82;;;;;;;19.59;74.41;100204.72;4999321;28;102240;-56
2022/10/02 00:18:09;;;;;;;138.07;130.93;;;;;;;19.60;74.74;100208.28;5001106;28;102166;-56
2022/10/02 00:20:44;;;;;;;129.00;122.38;;;;;;;19.59;74.34;100195.63;4990705;28;104505;-56
2022/10/02 00:23:20;;;;;;;133.57;126.55;;;;;;;19.60;74.37;100194.47;4997532;28;102552;-56
2022/10/02 00:25:51;;;;;;;127.00;120.40;;;;;;;19.59;74.32;100195.63;4992184;28;102197;-56
2022/10/02 00:28:24;;;;;;;134.75;127.75;;;;;;;19.59;74.27;100184.59;5016924;28;102529;-56
2022/10/02 00:31:11;;;;;;;138.98;131.85;;;;;;;19.59;74.63;100173.53;5010941;28;108001;-55
2022/10/02 00:33:52;;;;;;;137.95;130.95;;;;;;;19.60;74.59;100180.66;5014134;28;102425;-56
2022/10/02 00:36:32;;;;;;;132.10;125.25;;;;;;;19.59;74.44;100168.03;4996753;28;102079;-56
2022/10/02 00:39:04;;;;;;;134.23;127.30;;;;;;;19.60;74.20;100166.88;4992759;28;102517;-56
2022/10/02 00:41:57;;;;;;;142.85;135.60;;;;;;;19.58;74.58;100152.59;4986225;28;103744;-56
2022/10/02 00:44:40;;;;;;;138.05;130.88;;;;;;;19.59;74.24;100151.47;4972073;28;102374;-56
2022/10/02 00:47:16;;;;;;;143.57;136.32;;;;;;;19.59;74.54;100137.66;4996888;28;101921;-56
2022/10/02 00:49:56;;;;;;;139.90;132.75;;;;;;;19.59;74.90;100134.91;4997440;28;102527;-56
2022/10/02 00:52:42;;;;;;;149.55;141.82;;;;;;;19.59;74.55;100123.88;4998974;28;104153;-56
2022/10/02 00:55:27;;;;;;;136.98;129.90;;;;;;;19.59;74.76;100126.63;5014852;28;102328;-55
2022/10/02 00:58:06;;;;;;;136.85;129.77;;;;;;;19.59;74.80;100107.31;5012668;28;102515;-56
2022/10/02 01:00:33;;;;;;;144.57;137.23;;;;;;;19.59;74.65;100096.25;4997281;28;102621;-61
2022/10/02 01:03:14;;;;;;;155.55;147.43;;;;;;;19.59;74.53;100108.09;5015929;28;104145;-57
2022/10/02 01:05:42;;;;;;;141.30;133.95;;;;;;;19.59;74.86;100105.34;5015793;28;102213;-56
2022/10/02 01:08:10;;;;;;;154.25;146.27;;;;;;;19.59;74.48;100099.03;5015948;28;102342;-56
2022/10/02 01:10:38;;;;;;;154.27;146.40;;;;;;;19.59;74.70;100096.25;4988714;28;102224;-55
2022/10/02 01:13:06;;;;;;;155.25;147.07;;;;;;;19.59;74.63;100093.50;5015144;28;103979;-56
2022/10/02 01:15:39;;;;;;;156.52;148.60;;;;;;;19.60;74.62;100115.22;5012313;28;102347;-56
2022/10/02 01:18:11;;;;;;;154.30;146.57;;;;;;;19.59;74.79;100112.81;4997701;28;102247;-56
2022/10/02 01:20:42;;;;;;;156.73;148.90;;;;;;;19.59;74.83;100102.59;5004977;28;102339;-56
2022/10/02 01:23:20;;;;;;;164.02;155.73;;;;;;;19.59;74.49;100082.47;4994931;28;103875;-56
2022/10/02 01:25:49;;;;;;;144.98;137.20;;;;;;;19.59;74.59;100093.50;4982995;28;102445;-56
2022/10/02 01:28:16;;;;;;;147.35;139.68;;;;;;;19.59;74.78;100118.34;4992807;28;103700;-56
2022/10/02 01:30:47;;;;;;;153.95;146.15;;;;;;;19.60;74.85;100119.94;5013713;28;102219;-56
2022/10/02 01:33:14;;;;;;;164.68;156.45;;;;;;;19.59;74.49;100124.66;4995771;28;104362;-56
2022/10/02 01:35:41;;;;;;;157.60;149.65;;;;;;;19.60;74.62;100119.94;4991993;28;102082;-56
2022/10/02 01:38:11;;;;;;;159.70;151.60;;;;;;;19.59;74.63;100130.19;4978512;28;102192;-56
2022/10/02 01:40:39;;;;;;;166.95;158.48;;;;;;;19.59;74.88;100145.94;5016108;28;102257;-56
2022/10/02 01:43:09;;;;;;;;;;;;;;;19.60;74.67;100158.59;4999516;28;104200;-56
2022/10/02 01:45:57;;;;;;;117.60;111.57;;;;;;;19.61;74.84;100182.28;4997157;28;102347;-56
2022/10/02 01:48:38;;;;;;;139.00;131.80;;;;;;;19.61;74.62;100176.75;5001781;28;102239;-56
2022/10/02 01:51:19;;;;;;;153.75;145.80;;;;;;;19.60;74.97;100173.19;5017033;28;102365;-56
2022/10/02 01:53:49;;;;;;;145.93;138.60;;;;;;;19.60;74.92;100175.16;5014397;28;104096;-56
2022/10/02 01:56:22;;;;;;;167.60;159.20;;;;;;;19.61;74.56;100171.22;5015366;28;102014;-56
2022/10/02 01:59:04;;;;;;;168.35;159.63;;;;;;;19.60;75.01;100164.91;5006002;28;102277;-56
2022/10/02 02:01:43;;;;;;;168.57;160.10;;;;;;;19.61;75.04;100157.44;4978399;28;103547;-56
2022/10/02 02:04:20;;;;;;;169.07;160.68;;;;;;;19.60;75.05;100153.06;4999735;28;103809;-56
2022/10/02 02:06:56;;;;;;;155.60;147.82;;;;;;;19.60;75.28;100147.53;4997878;28;102339;-56
2022/10/02 02:09:29;;;;;;;158.02;150.15;;;;;;;19.59;75.17;100140.41;4995827;28;102303;-56
2022/10/02 02:12:02;;;;;;;163.45;155.27;;;;;;;19.59;74.90;100140.41;4999373;28;102151;-57
2022/10/02 02:14:34;;;;;;;163.73;155.55;;;;;;;19.60;74.99;100144.78;5015751;28;104053;-56
2022/10/02 02:17:11;;;;;;;161.00;152.88;;;;;;;19.61;74.95;100143.63;5010945;28;102015;-56
2022/10/02 02:19:44;;;;;;;157.30;149.10;;;;;;;19.60;75.08;100125.47;5012439;28;103481;-55
2022/10/02 02:22:21;;;;;;;155.05;146.85;;;;;;;19.59;75.30;100148.69;5016336;28;102235;-55
2022/10/02 02:24:53;;;;;;;150.43;142.60;;;;;;;19.59;74.70;100130.19;5015081;28;104049;-56
2022/10/02 02:27:23;;;;;;;162.23;153.98;;;;;;;19.61;75.23;100154.66;5015313;28;102286;-56
2022/10/02 02:29:56;;;;;;;156.77;148.75;;;;;;;19.60;74.87;100147.53;5009106;28;102376;-56
2022/10/02 02:32:29;;;;;;;156.70;148.57;;;;;;;19.60;74.95;100142.03;4995718;28;102091;-56
2022/10/02 02:35:01;;;;;;;156.50;148.50;;;;;;;19.60;75.09;100136.50;4995167;28;104605;-56
2022/10/02 02:37:31;;;;;;;155.90;148.05;;;;;;;19.59;74.90;100134.91;4995436;28;104091;-56
2022/10/02 02:40:05;;;;;;;144.60;137.18;;;;;;;19.59;74.86;100137.66;4989119;28;102020;-56
2022/10/02 02:42:38;;;;;;;152.63;144.88;;;;;;;19.58;74.50;100139.63;4996734;28;102058;-56
2022/10/02 02:45:11;;;;;;;155.38;147.57;;;;;;;19.58;74.57;100128.59;4999136;28;104086;-56
2022/10/02 02:47:44;;;;;;;152.82;145.18;;;;;;;19.59;74.64;100129.38;5014528;28;102748;-56
2022/10/02 02:50:15;;;;;;;149.38;141.73;;;;;;;19.58;74.72;100119.47;5014637;28;102265;-56
2022/10/02 02:52:48;;;;;;;149.13;141.50;;;;;;;19.59;74.77;100115.59;5011794;28;104112;-56
2022/10/02 02:55:19;;;;;;;152.07;144.43;;;;;;;19.58;74.77;100105.66;5014189;28;103917;-56
2022/10/02 02:57:51;;;;;;;155.05;147.07;;;;;;;19.57;74.50;100104.88;5012643;28;102114;-56
2022/10/02 03:00:21;;;;;;;158.13;150.07;;;;;;;19.58;74.61;100100.16;5006578;28;103918;-56
2022/10/02 03:02:49;;;;;;;;;;;;;;;19.57;74.56;100102.09;5004451;28;102064;-56
2022/10/02 03:05:18;;;;;;;118.55;112.38;;;;;;;19.57;74.63;100095.78;5004790;28;103649;-56
2022/10/02 03:07:49;;;;;;;;;;;;;;;19.57;74.80;100095.78;5006145;28;102468;-56
2022/10/02 03:10:20;;;;;;;101.53;96.20;;;;;;;19.56;74.83;100100.50;5001184;28;102244;-56
2022/10/02 03:12:58;;;;;;;118.40;112.43;;;;;;;19.56;74.90;100089.47;4996068;28;102583;-54
2022/10/02 03:15:33;;;;;;;127.85;121.22;;;;;;;19.56;74.76;100080.41;5000932;28;103936;-55
2022/10/02 03:18:29;;;;;;;122.78;116.35;;;;;;;19.55;74.94;100067.75;4995242;28;102376;-56
2022/10/02 03:21:05;;;;;;;136.23;129.27;;;;;;;19.55;75.03;100063.03;4985028;28;102922;-56
2022/10/02 03:23:37;;;;;;;133.75;126.80;;;;;;;19.54;74.89;100066.91;5014858;28;102165;-56
2022/10/02 03:26:10;;;;;;;147.65;140.27;;;;;;;19.54;74.74;100057.84;5004022;28;103890;-56
2022/10/02 03:28:42;;;;;;;146.35;139.02;;;;;;;19.56;74.76;100052.78;4991489;28;102398;-56
2022/10/02 03:31:14;;;;;;;142.88;135.70;;;;;;;19.54;74.55;100033.81;5015019;28;102395;-57
2022/10/02 03:33:43;;;;;;;144.55;137.10;;;;;;;19.55;74.71;100034.63;4994498;28;102184;-56
2022/10/02 03:36:11;;;;;;;;;;;;;;;19.54;74.82;100024.72;5002806;28;104030;-56
2022/10/02 03:38:38;;;;;;;113.90;108.03;;;;;;;19.54;74.55;100021.97;4986239;28;102184;-56
2022/10/02 03:41:05;;;;;;;132.15;125.25;;;;;;;19.54;74.75;100010.94;4992945;28;102213;-56
2022/10/02 03:43:31;;;;;;;137.15;130.25;;;;;;;19.54;74.63;100006.19;5016652;28;102989;-56
2022/10/02 03:45:58;;;;;;;143.68;136.40;;;;;;;19.53;74.44;99999.09;5012495;28;103924;-56
2022/10/02 03:48:26;;;;;;;144.20;137.02;;;;;;;19.54;74.95;99997.94;5002079;28;102552;-56
2022/10/02 03:50:52;;;;;;;135.37;128.37;;;;;;;19.53;74.47;99990.00;4997625;28;102239;-56
2022/10/02 03:53:21;;;;;;;134.82;128.00;;;;;;;19.52;74.71;99980.94;5012517;28;102256;-56
2022/10/02 03:55:53;;;;;;;136.77;129.82;;;;;;;19.52;74.46;99974.63;5009713;28;104262;-56
2022/10/02 03:58:20;;;;;;;133.82;127.10;;;;;;;19.52;74.75;99964.38;5014245;28;102193;-56
2022/10/02 04:00:55;;;;;;;136.60;129.67;;;;;;;19.53;74.64;99960.44;5001281;28;102453;-56
2022/10/02 04:03:28;;;;;;;137.02;130.20;;;;;;;19.52;74.43;99952.53;5004294;28;102698;-56
2022/10/02 04:06:00;;;;;;;133.57;126.80;;;;;;;19.53;74.65;99948.63;5016306;28;108388;-55
2022/10/02 04:08:34;;;;;;;134.90;128.13;;;;;;;19.52;74.76;99941.50;4990100;28;102188;-57
2022/10/02 04:11:06;;;;;;;129.02;122.28;;;;;;;19.52;74.61;99955.28;5000263;28;102017;-56
2022/10/02 04:13:38;;;;;;;131.73;125.10;;;;;;;19.53;74.76;99965.16;4998444;28;102338;-56
2022/10/02 04:16:11;;;;;;;128.32;121.82;;;;;;;19.52;74.75;99960.81;4997578;28;103935;-56
2022/10/02 04:18:47;;;;;;;136.18;129.32;;;;;;;19.52;74.80;99958.06;4997822;28;102338;-56
2022/10/02 04:21:33;;;;;;;125.35;119.00;;;;;;;19.53;74.67;99965.16;5016106;28;101946;-56
2022/10/02 04:24:08;;;;;;;133.50;126.75;;;;;;;19.53;74.46;99956.88;5018559;28;102311;-56
2022/10/02 04:26:41;;;;;;;128.70;122.22;;;;;;;19.52;74.50;99958.06;5017500;28;104144;-56
2022/10/02 04:29:15;;;;;;;129.90;123.25;;;;;;;19.51;74.62;99968.28;5016567;28;102624;-56
2022/10/02 04:31:44;;;;;;;129.80;123.30;;;;;;;19.52;74.45;99977.38;5001059;28;102408;-57
2022/10/02 04:34:12;;;;;;;139.82;132.75;;;;;;;19.52;74.64;99980.13;4998698;28;102759;-56
2022/10/02 04:36:53;;;;;;;134.93;128.15;;;;;;;19.52;74.60;99969.09;4996298;28;104234;-57
2022/10/02 04:39:35;;;;;;;135.82;128.95;;;;;;;19.52;74.62;99974.63;5002241;28;102316;-56
2022/10/02 04:42:17;;;;;;;133.32;126.65;;;;;;;19.52;74.67;99971.84;4996534;28;102368;-57
2022/10/02 04:45:01;;;;;;;129.85;123.10;;;;;;;19.51;74.56;99971.06;5011478;28;102720;-56
2022/10/02 04:47:47;;;;;;;123.03;116.70;;;;;;;19.51;74.59;99957.25;5012976;28;104015;-56
2022/10/02 04:50:33;;;;;;;125.28;118.93;;;;;;;19.51;74.52;99961.94;5017061;28;102421;-56
2022/10/02 04:53:15;;;;;;;126.18;119.75;;;;;;;19.52;74.72;99955.28;5013294;28;102157;-56
2022/10/02 04:56:18;;;;;;;133.73;126.93;;;;;;;19.52;74.81;99958.06;5016442;28;102375;-56
2022/10/02 04:59:00;;;;;;;136.52;129.77;;;;;;;19.51;74.56;99939.88;5005272;28;103945;-56
2022/10/02 05:01:37;;;;;;;131.45;124.75;;;;;;;19.51;74.49;99939.88;5000724;28;102214;-53
2022/10/02 05:04:22;;;;;;;128.55;122.15;;;;;;;19.51;74.52;99934.34;4996554;28;102318;-55
2022/10/02 05:07:05;;;;;;;130.95;124.40;;;;;;;19.51;74.53;99931.59;5011010;28;102755;-56
2022/10/02 05:09:39;;;;;;;129.55;122.97;;;;;;;19.52;74.43;99922.19;4996741;28;103998;-56
2022/10/02 05:12:24;;;;;;;137.63;130.57;;;;;;;19.51;74.46;99928.81;4997106;28;102715;-56
2022/10/02 05:15:09;;;;;;;130.30;123.63;;;;;;;19.51;74.70;99926.06;4996436;28;102091;-56
2022/10/02 05:17:56;;;;;;;128.27;121.80;;;;;;;19.52;74.68;99927.69;5000347;28;102093;-56
2022/10/02 05:20:44;;;;;;;129.98;123.47;;;;;;;19.50;74.51;99919.75;5014262;28;103856;-56
2022/10/02 05:23:25;;;;;;;130.68;124.13;;;;;;;19.50;74.70;99922.50;5000644;28;102290;-56
2022/10/02 05:26:05;;;;;;;124.95;118.70;;;;;;;19.51;74.74;99913.09;4997777;28;102252;-56
2022/10/02 05:28:43;;;;;;;;;;;;;;;19.51;74.72;99906.75;5006566;28;102458;-56
2022/10/02 05:31:24;;;;;;;114.63;108.90;;;;;;;19.51;74.61;99904.00;5010784;28;104176;-56
2022/10/02 05:34:10;;;;;;;121.25;115.20;;;;;;;19.51;74.74;99906.75;4992001;28;102840;-56
2022/10/02 05:36:55;;;;;;;129.98;123.53;;;;;;;19.52;74.67;99916.66;4999181;28;102544;-56
2022/10/02 05:39:28;;;;;;;127.88;121.53;;;;;;;19.52;74.83;99919.41;4995759;28;102261;-56
2022/10/02 05:42:04;;;;;;;133.80;127.15;;;;;;;19.52;74.59;99919.41;5004536;28;104144;-56
2022/10/02 05:44:36;;;;;;;135.15;128.40;;;;;;;19.52;74.28;99927.69;5007239;28;102061;-56
2022/10/02 05:47:11;;;;;;;149.05;141.73;;;;;;;19.52;74.49;99922.97;4998525;28;102748;-56
2022/10/02 05:49:42;;;;;;;145.48;138.32;;;;;;;19.53;74.42;99929.28;4997004;28;102261;-56
2022/10/02 05:52:15;;;;;;;137.15;130.32;;;;;;;19.52;74.49;99922.97;4996037;28;104066;-56
2022/10/02 05:54:51;;;;;;;142.57;135.50;;;;;;;19.52;74.87;99931.25;4987663;28;104348;-55
2022/10/02 05:57:24;;;;;;;139.15;132.23;;;;;;;19.53;74.58;99932.06;4971877;28;102500;-56
2022/10/02 06:00:01;;;;;;;144.55;137.50;;;;;;;19.52;74.85;99935.97;4979968;28;102420;-56
2022/10/02 06:02:36;;;;;;;143.23;136.02;;;;;;;19.52;74.69;99942.28;4976911;28;103937;-56
2022/10/02 06:05:12;;;;;;;143.10;136.05;;;;;;;19.53;74.74;99943.88;4975007;28;102314;-57
2022/10/02 06:07:42;;;;;;;138.77;131.95;;;;;;;19.51;74.57;99951.72;4974386;28;102602;-57
2022/10/02 06:10:16;;;;;;;150.90;143.40;;;;;;;19.53;74.62;99959.66;4977616;28;102603;-56
2022/10/02 06:12:51;;;;;;;140.52;133.70;;;;;;;19.52;74.67;99958.06;4970863;28;103922;-56
2022/10/02 06:15:23;;;;;;;145.93;138.70;;;;;;;19.53;74.90;99965.16;4977547;28;102416;-56
2022/10/02 06:17:57;;;;;;;142.48;135.30;;;;;;;19.53;74.66;99976.22;4976533;28;101964;-57
2022/10/02 06:20:29;;;;;;;146.38;139.15;;;;;;;19.52;74.55;99980.13;4978059;28;102471;-56
2022/10/02 06:23:03;;;;;;;141.13;134.13;;;;;;;19.52;74.67;99980.13;4976342;28;103908;-56
2022/10/02 06:25:36;;;;;;;133.02;126.43;;;;;;;19.53;74.71;99987.25;4976309;28;102129;-56
2022/10/02 06:28:13;;;;;;;135.93;129.15;;;;;;;19.52;74.56;99991.16;4960070;28;102807;-56
2022/10/02 06:30:45;;;;;;;136.63;129.82;;;;;;;19.50;74.77;99988.75;4975923;28;101984;-56
2022/10/02 06:33:18;;;;;;;140.30;133.38;;;;;;;19.51;74.88;99997.81;4962858;28;103988;-56
2022/10/02 06:36:00;;;;;;;139.82;132.90;;;;;;;19.52;74.91;99993.94;4976736;28;102361;-56
2022/10/02 06:38:39;;;;;;;132.00;125.38;;;;;;;19.51;74.74;99989.53;4991083;28;102048;-56
2022/10/02 06:41:19;;;;;;;142.43;135.38;;;;;;;19.50;74.85;100002.53;4976297;28;102960;-56
2022/10/02 06:44:06;;;;;;;135.95;129.15;;;;;;;19.51;74.70;100006.09;4969548;28;103973;-56
2022/10/02 06:46:43;;;;;;;131.75;125.20;;;;;;;19.51;74.95;100006.09;4985713;28;102640;-56
2022/10/02 06:49:17;;;;;;;125.85;119.50;;;;;;;19.51;74.80;100014.38;4979091;28;102136;-56
2022/10/02 06:51:55;;;;;;;138.07;131.30;;;;;;;19.50;74.79;100005.31;4977696;28;102351;-56
2022/10/02 06:54:40;;;;;;;131.45;124.80;;;;;;;19.50;74.89;100015.53;4966462;28;103841;-56
2022/10/02 06:57:32;;;;;;;133.60;127.03;;;;;;;19.50;74.79;100010.81;4972252;28;102344;-56
2022/10/02 07:00:10;;;;;;;125.35;119.10;;;;;;;19.50;75.00;100010.81;4969547;28;102474;-56
2022/10/02 07:02:59;;;;;;;128.40;121.90;;;;;;;19.50;74.80;100027.38;4978329;28;102158;-55
2022/10/02 07:06:02;;;;;;;116.70;110.93;;;;;;;19.51;74.62;100029.00;4975862;28;104237;-56
2022/10/02 07:08:41;;;;;;;127.68;121.35;;;;;;;19.51;74.55;100022.66;4976550;28;102000;-57
2022/10/02 07:11:20;;;;;;;125.63;119.30;;;;;;;19.50;74.65;100032.91;4975262;28;102147;-56
2022/10/02 07:14:02;;;;;;;130.23;123.70;;;;;;;19.51;74.77;100034.53;4977504;28;102139;-56
2022/10/02 07:16:41;;;;;;;126.32;120.05;;;;;;;19.50;74.81;100040.38;4975804;28;104001;-56
2022/10/02 07:19:37;;;;;;;129.95;123.53;;;;;;;19.51;74.60;100037.28;4977367;28;102370;-56
2022/10/02 07:22:19;;;;;;;127.90;121.47;;;;;;;19.50;74.71;100043.94;4975082;28;102081;-56
2022/10/02 07:25:05;;;;;;;135.90;129.02;;;;;;;19.50;74.86;100037.63;4976679;28;102494;-56
2022/10/02 07:27:37;;;;;;;130.85;124.40;;;;;;;19.49;75.03;100031.28;4975858;28;103850;-56
2022/10/02 07:30:09;;;;;;;128.00;121.50;;;;;;;19.48;74.73;100042.69;4970237;28;102164;-56
2022/10/02 07:32:47;;;;;;;134.48;127.82;;;;;;;19.49;75.01;100042.34;4977813;28;103507;-56
2022/10/02 07:35:31;;;;;;;136.80;129.93;;;;;;;19.50;74.74;100045.91;4964766;28;102511;-57
2022/10/02 07:38:11;;;;;;;125.93;119.68;;;;;;;19.49;74.84;100039.56;4968217;28;103949;-56
2022/10/02 07:40:52;;;;;;;125.15;118.95;;;;;;;19.49;74.75;100036.00;4973382;28;102250;-56
2022/10/02 07:43:31;;;;;;;126.32;120.05;;;;;;;19.49;74.72;100039.56;4976678;28;102456;-56
2022/10/02 07:46:08;;;;;;;126.03;119.72;;;;;;;19.50;74.79;100040.38;4976768;28;102189;-55
2022/10/02 07:48:43;;;;;;;119.60;113.68;;;;;;;19.49;74.71;100047.84;4974409;28;104080;-56
2022/10/02 07:54:44;;;;;;;113.70;107.83;;;;;;;19.50;74.93;100054.97;4975883;28;101928;-56
2022/10/02 07:57:24;;;;;;;108.45;103.05;;;;;;;19.50;74.90;100051.41;4977164;28;102169;-56
2022/10/02 07:59:58;;;;;;;113.22;107.57;;;;;;;19.49;74.89;100052.56;4975213;28;105020;-56
2022/10/02 08:02:33;;;;;;;116.93;111.15;;;;;;;19.49;74.98;100052.56;4976307;28;101796;-56
2022/10/02 08:05:04;;;;;;;120.60;114.53;;;;;;;19.49;74.75;100058.09;4975013;28;102633;-56
2022/10/02 08:07:32;;;;;;;115.93;110.07;;;;;;;19.50;75.06;100059.69;4976372;28;102115;-54
2022/10/02 08:10:07;;;;;;;125.38;119.18;;;;;;;19.50;74.80;100059.69;4973780;28;103988;-57
2022/10/02 08:12:39;;;;;;;127.70;121.35;;;;;;;19.50;74.80;100049.44;4985454;28;102518;-56
2022/10/02 08:15:14;;;;;;;133.65;127.00;;;;;;;19.50;74.85;100054.16;4980112;28;102214;-56
2022/10/02 08:17:48;;;;;;;118.82;112.95;;;;;;;19.50;75.04;100060.50;4979368;28;103628;-56
2022/10/02 08:20:21;;;;;;;127.88;121.50;;;;;;;19.50;74.73;100052.22;4978956;28;104149;-56
2022/10/02 08:22:52;;;;;;;118.88;112.93;;;;;;;19.49;74.98;100053.38;4983495;28;102589;-56
2022/10/02 08:25:24;;;;;;;124.13;117.97;;;;;;;19.51;74.89;100050.25;4998981;28;102464;-56
2022/10/02 08:27:57;;;;;;;127.53;121.32;;;;;;;19.50;74.89;100063.25;4979499;28;102431;-56
2022/10/02 08:30:23;;;;;;;121.82;115.68;;;;;;;19.50;74.62;100059.69;4976748;28;103871;-56
2022/10/02 08:32:52;;;;;;;123.70;117.55;;;;;;;19.50;74.71;100057.72;4959235;28;101925;-56
2022/10/02 08:35:19;;;;;;;;;;;;;;;19.51;74.69;100061.28;4966043;28;103038;-56
2022/10/02 08:38:11;;;;;;;94.88;90.13;;;;;;;19.51;74.90;100056.59;4989468;28;102401;-56
2022/10/02 08:41:16;;;;;;;107.22;101.82;;;;;;;19.51;74.96;100056.59;4986472;28;103963;-56
2022/10/02 08:44:38;;;;;;;114.57;108.88;;;;;;;19.53;74.62;100064.53;4947937;28;103989;-56
2022/10/02 08:47:41;;;;;;;106.13;100.78;;;;;;;19.51;74.98;100064.06;4888363;28;102689;-56
2022/10/02 08:50:42;;;;;;;110.55;104.95;;;;;;;19.53;74.60;100059.81;4907604;28;102561;-57
2022/10/02 08:53:41;;;;;;;111.47;105.88;;;;;;;19.52;74.69;100062.94;4996518;28;103869;-56
2022/10/02 08:56:25;;;;;;;113.38;107.60;;;;;;;19.53;74.88;100070.84;5009448;28;102060;-56
2022/10/02 08:59:26;;;;;;;126.47;120.13;;;;;;;19.54;74.89;100074.41;4999807;28;102115;-56
2022/10/02 09:02:34;;;;;;;113.13;107.45;;;;;;;19.52;74.86;100066.47;4978479;28;102708;-56
2022/10/02 09:05:29;;;;;;;116.80;110.97;;;;;;;19.52;74.81;100057.41;4983303;28;104097;-56
2022/10/02 09:08:28;;;;;;;114.95;109.13;;;;;;;19.53;74.89;100064.53;4996862;28;102098;-56
2022/10/02 09:11:45;;;;;;;116.22;110.32;;;;;;;19.51;74.88;100064.88;4963181;28;102251;-56
2022/10/02 09:14:33;;;;;;;116.60;110.75;;;;;;;19.51;75.11;100061.28;4953396;28;103156;-56
2022/10/02 09:17:31;;;;;;;112.25;106.53;;;;;;;19.51;74.70;100067.63;5006963;28;103534;-56
2022/10/02 09:23:54;;;;;;;126.20;119.93;;;;;;;19.51;74.89;100078.69;5056282;27;101968;-57
2022/10/02 09:26:41;;;;;;;117.97;112.03;;;;;;;19.50;75.08;100081.78;5022243;27;103006;-56
2022/10/02 09:30:04;;;;;;;128.27;121.80;;;;;;;19.49;75.10;100074.66;5050601;27;103732;-56
2022/10/02 09:33:05;;;;;;;118.75;112.80;;;;;;;19.49;74.96;100085.69;4976048;28;102057;-57
2022/10/02 09:36:23;;;;;;;129.77;123.28;;;;;;;19.49;74.93;100077.41;4991254;28;102092;-57
2022/10/02 09:39:08;;;;;;;;;;;;;;;19.48;75.09;100073.06;5042776;27;102798;-57
2022/10/02 09:42:14;;;;;;;105.03;99.80;;;;;;;19.49;74.83;100085.69;5045834;27;103898;-56
2022/10/02 09:45:31;;;;;;;113.10;107.35;;;;;;;19.49;74.78;100091.22;5039252;27;102874;-57
2022/10/02 09:48:47;;;;;;;121.00;114.90;;;;;;;19.49;74.61;100080.16;5024660;27;102842;-56
2022/10/02 09:51:43;;;;;;;121.50;115.45;;;;;;;19.51;74.98;100077.84;5016802;27;102076;-57
2022/10/02 09:54:49;;;;;;;122.20;116.07;;;;;;;19.50;74.73;100084.53;5045525;27;104037;-57
2022/10/02 09:57:56;;;;;;;127.78;121.38;;;;;;;19.50;74.58;100076.25;5016866;27;102393;-57
2022/10/02 10:00:34;;;;;;;132.60;125.97;;;;;;;19.50;74.72;100063.25;5043568;27;102228;-59
2022/10/02 10:03:35;;;;;;;131.75;125.20;;;;;;;19.51;74.74;100072.31;5053215;27;102575;-57
2022/10/02 10:06:31;;;;;;;131.10;124.53;;;;;;;19.51;74.73;100072.31;5037937;27;103914;-57
2022/10/02 10:09:42;;;;;;;137.73;130.82;;;;;;;19.51;74.68;100072.31;5034667;27;102277;-57
2022/10/02 10:12:41;;;;;;;130.38;123.80;;;;;;;19.51;74.63;100080.59;5026786;27;101822;-56
2022/10/02 10:15:28;;;;;;;134.45;127.80;;;;;;;19.52;74.49;100090.53;5048959;27;102068;-56
2022/10/02 10:18:27;;;;;;;142.63;135.60;;;;;;;19.51;74.72;100092.47;5040118;27;104094;-57
2022/10/02 10:21:29;;;;;;;136.55;129.73;;;;;;;19.51;74.60;100083.38;5046506;27;102487;-57
2022/10/02 10:24:22;;;;;;;126.35;120.10;;;;;;;19.51;74.42;100086.13;5007682;27;102364;-57
2022/10/02 10:27:14;;;;;;;140.32;133.43;;;;;;;19.51;74.18;100080.59;5045201;27;102847;-57
2022/10/02 10:30:20;;;;;;;133.80;127.20;;;;;;;19.50;74.48;100088.09;5038350;27;104146;-57
2022/10/02 10:33:25;;;;;;;138.10;131.25;;;;;;;19.50;74.32;100090.03;5036703;27;101859;-57
2022/10/02 10:38:31;;;;;;;141.57;134.60;;;;;;;19.50;74.11;100103.84;5024992;28;102813;-56
2022/10/02 10:39:25;;;;;;;127.38;121.10;;;;;;;19.49;74.46;100085.69;5020819;28;102540;-57
2022/10/02 10:42:23;;;;;;;137.20;130.40;;;;;;;19.49;74.28;100085.69;5030422;28;104042;-57
2022/10/02 10:45:17;;;;;;;141.48;134.48;;;;;;;19.49;74.53;100096.72;5039881;28;102024;-57
2022/10/02 10:48:14;;;;;;;143.35;136.27;;;;;;;19.49;74.06;100091.22;5039534;27;101987;-57
2022/10/02 10:50:49;;;;;;;138.13;131.25;;;;;;;19.48;73.96;100086.84;5040037;27;102612;-56
2022/10/02 10:53:56;;;;;;;149.65;142.30;;;;;;;19.48;74.07;100086.84;5026417;27;103689;-57
2022/10/02 10:56:35;;;;;;;144.37;137.30;;;;;;;19.48;74.21;100073.84;4989112;27;102116;-57
2022/10/02 10:59:29;;;;;;;143.13;136.02;;;;;;;19.48;74.19;100082.13;5036823;27;101991;-56
2022/10/02 11:02:15;;;;;;;154.82;147.30;;;;;;;19.48;74.00;100081.31;5036183;28;102057;-57
2022/10/02 11:05:05;;;;;;;147.27;140.10;;;;;;;19.47;74.31;100087.97;5020844;28;104036;-57
2022/10/02 11:07:49;;;;;;;151.02;143.57;;;;;;;19.47;74.07;100090.75;5022443;27;102626;-57
2022/10/02 11:10:29;;;;;;;150.57;143.20;;;;;;;19.48;74.19;100073.06;5034359;27;102052;-57
2022/10/02 11:13:18;;;;;;;153.35;145.90;;;;;;;19.47;73.83;100072.22;5023707;28;102134;-57
2022/10/02 11:16:19;;;;;;;154.20;146.73;;;;;;;19.47;73.91;100066.69;5024154;27;104019;-57
2022/10/02 11:19:13;;;;;;;148.18;140.90;;;;;;;19.48;73.54;100068.34;4979619;28;102015;-57
2022/10/02 11:22:19;;;;;;;152.88;145.45;;;;;;;19.47;73.72;100076.94;5013905;28;102219;-57
2022/10/02 11:25:14;;;;;;;153.00;145.48;;;;;;;19.47;73.97;100083.25;5025761;28;103112;-57
2022/10/02 11:28:13;;;;;;;153.15;145.60;;;;;;;19.48;73.98;100097.88;5019901;28;103927;-57
2022/10/02 11:30:43;;;;;;;;;;;;;;;19.48;73.57;100089.59;5015078;28;102574;-57
2022/10/02 11:33:37;;;;;;;126.35;120.15;;;;;;;19.47;73.96;100099.00;5016052;28;101971;-57
2022/10/02 11:36:41;;;;;;;148.02;140.82;;;;;;;19.47;73.76;100090.75;5035811;28;102330;-58
2022/10/02 11:39:14;;;;;;;152.85;145.45;;;;;;;19.46;74.17;100098.22;5018058;28;103851;-57
2022/10/02 11:42:08;;;;;;;152.05;144.63;;;;;;;19.46;73.36;100087.19;5018999;28;102663;-57
2022/10/02 11:44:56;;;;;;;167.02;158.80;;;;;;;19.46;73.46;100098.22;5015341;28;101977;-57
2022/10/02 11:47:57;;;;;;;161.17;153.37;;;;;;;19.48;73.40;100103.41;5020788;28;104468;-57
2022/10/02 11:51:09;;;;;;;158.20;150.55;;;;;;;19.46;73.29;100106.50;5001916;28;104892;-57
2022/10/02 11:53:56;;;;;;;165.57;157.57;;;;;;;19.47;73.65;100104.53;5021405;28;103650;-57
2022/10/02 11:56:42;;;;;;;162.60;154.68;;;;;;;19.45;73.71;100097.41;5017108;28;102189;-57
2022/10/02 11:59:28;;;;;;;165.18;157.18;;;;;;;19.44;73.93;100117.88;5017767;28;102561;-57